sensor_id;sensor_type;location;lat;lon;timestamp;P1;durP1;ratioP1;P2;durP2;ratioP2
10537;SDS011;5317;49.048;8.468;2023-02-08T00:01:06;13.60;;;10.02;;
10537;SDS011;5317;49.048;8.468;2023-02-08T00:03:34;14.32;;;10.10;;
10537;SDS011;5317;49.048;8.468;2023-02-08T00:06:02;12.68;;;9.18;;
10537;SDS011;5317;49.048;8.468;2023-02-08T00:08:31;12.52;;;9.23;;
10537;SDS011;5317;49.048;8.468;2023-02-08T00:10:58;12.60;;;9.55;;
10537;SDS011;5317;49.048;8.468;2023-02-08T00:13:25;13.02;;;9.32;;
10537;SDS011;5317;49.048;8.468;2023-02-08T00:15:52;12.35;;;9.13;;
10537;SDS011;5317;49.048;8.468;2023-02-08T00:18:20;11.20;;;9.05;;
10537;SDS011;5317;49.048;8.468;2023-02-08T00:20:47;15.73;;;10.13;;
10537;SDS011;5317;49.048;8.468;2023-02-08T00:23:14;14.75;;;9.43;;
10537;SDS011;5317;49.048;8.468;2023-02-08T00:25:43;12.77;;;9.18;;
10537;SDS011;5317;49.048;8.468;2023-02-08T00:28:11;13.90;;;9.82;;
10537;SDS011;5317;49.048;8.468;2023-02-08T00:30:40;12.60;;;9.43;;
10537;SDS011;5317;49.048;8.468;2023-02-08T00:33:07;11.63;;;9.13;;
10537;SDS011;5317;49.048;8.468;2023-02-08T00:35:34;14.35;;;10.18;;
10537;SDS011;5317;49.048;8.468;2023-02-08T00:38:02;15.52;;;10.40;;
10537;SDS011;5317;49.048;8.468;2023-02-08T00:40:29;13.70;;;9.90;;
10537;SDS011;5317;49.048;8.468;2023-02-08T00:42:57;15.90;;;10.50;;
10537;SDS011;5317;49.048;8.468;2023-02-08T00:45:24;13.63;;;10.23;;
10537;SDS011;5317;49.048;8.468;2023-02-08T00:47:50;13.68;;;9.82;;
10537;SDS011;5317;49.048;8.468;2023-02-08T00:50:17;12.90;;;10.10;;
10537;SDS011;5317;49.048;8.468;2023-02-08T00:52:44;14.88;;;10.27;;
10537;SDS011;5317;49.048;8.468;2023-02-08T00:55:11;13.27;;;9.75;;
10537;SDS011;5317;49.048;8.468;2023-02-08T00:57:38;12.13;;;9.25;;
10537;SDS011;5317;49.048;8.468;2023-02-08T01:00:07;14.30;;;10.07;;
10537;SDS011;5317;49.048;8.468;2023-02-08T01:02:36;13.52;;;10.40;;
10537;SDS011;5317;49.048;8.468;2023-02-08T01:05:03;15.30;;;10.05;;
10537;SDS011;5317;49.048;8.468;2023-02-08T01:07:30;14.55;;;9.90;;
10537;SDS011;5317;49.048;8.468;2023-02-08T01:09:57;15.25;;;10.88;;
10537;SDS011;5317;49.048;8.468;2023-02-08T01:12:24;12.88;;;9.57;;
10537;SDS011;5317;49.048;8.468;2023-02-08T01:14:51;11.80;;;9.30;;
10537;SDS011;5317;49.048;8.468;2023-02-08T01:17:19;12.23;;;9.73;;
10537;SDS011;5317;49.048;8.468;2023-02-08T01:19:46;14.93;;;10.07;;
10537;SDS011;5317;49.048;8.468;2023-02-08T01:22:13;12.70;;;9.95;;
10537;SDS011;5317;49.048;8.468;2023-02-08T01:24:40;14.15;;;9.88;;
10537;SDS011;5317;49.048;8.468;2023-02-08T01:27:07;13.90;;;10.23;;
10537;SDS011;5317;49.048;8.468;2023-02-08T01:29:34;14.73;;;9.38;;
10537;SDS011;5317;49.048;8.468;2023-02-08T01:32:00;15.27;;;10.20;;
10537;SDS011;5317;49.048;8.468;2023-02-08T01:34:29;15.65;;;9.73;;
10537;SDS011;5317;49.048;8.468;2023-02-08T01:36:55;17.33;;;10.55;;
10537;SDS011;5317;49.048;8.468;2023-02-08T01:39:22;15.82;;;10.20;;
10537;SDS011;5317;49.048;8.468;2023-02-08T01:41:49;15.13;;;9.63;;
10537;SDS011;5317;49.048;8.468;2023-02-08T01:47:20;15.68;;;9.50;;
10537;SDS011;5317;49.048;8.468;2023-02-08T01:49:49;13.73;;;10.30;;
10537;SDS011;5317;49.048;8.468;2023-02-08T01:52:17;15.27;;;10.77;;
10537;SDS011;5317;49.048;8.468;2023-02-08T01:54:48;15.68;;;10.68;;
10537;SDS011;5317;49.048;8.468;2023-02-08T01:57:18;13.65;;;9.65;;
10537;SDS011;5317;49.048;8.468;2023-02-08T01:59:46;15.35;;;10.90;;
10537;SDS011;5317;49.048;8.468;2023-02-08T02:02:16;12.65;;;9.75;;
10537;SDS011;5317;49.048;8.468;2023-02-08T02:04:47;11.98;;;9.88;;
10537;SDS011;5317;49.048;8.468;2023-02-08T02:07:16;13.65;;;9.57;;
10537;SDS011;5317;49.048;8.468;2023-02-08T02:09:46;12.80;;;9.82;;
10537;SDS011;5317;49.048;8.468;2023-02-08T02:12:18;14.57;;;9.90;;
10537;SDS011;5317;49.048;8.468;2023-02-08T02:14:46;13.35;;;9.75;;
10537;SDS011;5317;49.048;8.468;2023-02-08T02:17:13;15.38;;;9.80;;
10537;SDS011;5317;49.048;8.468;2023-02-08T02:19:45;14.80;;;10.35;;
10537;SDS011;5317;49.048;8.468;2023-02-08T02:25:25;12.13;;;9.45;;
10537;SDS011;5317;49.048;8.468;2023-02-08T02:28:35;13.15;;;9.63;;
10537;SDS011;5317;49.048;8.468;2023-02-08T02:31:47;11.70;;;9.07;;
10537;SDS011;5317;49.048;8.468;2023-02-08T02:34:31;13.10;;;9.40;;
10537;SDS011;5317;49.048;8.468;2023-02-08T02:37:07;11.90;;;9.05;;
10537;SDS011;5317;49.048;8.468;2023-02-08T02:39:39;13.70;;;10.00;;
10537;SDS011;5317;49.048;8.468;2023-02-08T02:42:14;14.10;;;9.25;;
10537;SDS011;5317;49.048;8.468;2023-02-08T02:45:06;12.95;;;9.50;;
10537;SDS011;5317;49.048;8.468;2023-02-08T02:47:43;13.35;;;9.40;;
10537;SDS011;5317;49.048;8.468;2023-02-08T02:50:18;11.70;;;8.98;;
10537;SDS011;5317;49.048;8.468;2023-02-08T02:52:50;13.30;;;10.13;;
10537;SDS011;5317;49.048;8.468;2023-02-08T02:55:24;14.38;;;9.35;;
10537;SDS011;5317;49.048;8.468;2023-02-08T02:57:53;12.95;;;9.15;;
10537;SDS011;5317;49.048;8.468;2023-02-08T03:00:22;13.25;;;9.88;;
10537;SDS011;5317;49.048;8.468;2023-02-08T03:02:52;13.10;;;9.32;;
10537;SDS011;5317;49.048;8.468;2023-02-08T03:05:20;13.57;;;9.95;;
10537;SDS011;5317;49.048;8.468;2023-02-08T03:10:48;11.27;;;9.18;;
10537;SDS011;5317;49.048;8.468;2023-02-08T03:13:25;12.35;;;9.13;;
10537;SDS011;5317;49.048;8.468;2023-02-08T03:15:59;13.07;;;9.90;;
10537;SDS011;5317;49.048;8.468;2023-02-08T03:18:35;11.48;;;9.02;;
10537;SDS011;5317;49.048;8.468;2023-02-08T03:21:11;12.80;;;9.57;;
10537;SDS011;5317;49.048;8.468;2023-02-08T03:23:45;14.52;;;9.18;;
10537;SDS011;5317;49.048;8.468;2023-02-08T03:26:18;16.90;;;9.82;;
10537;SDS011;5317;49.048;8.468;2023-02-08T03:28:50;14.05;;;9.80;;
10537;SDS011;5317;49.048;8.468;2023-02-08T03:31:24;12.02;;;9.20;;
10537;SDS011;5317;49.048;8.468;2023-02-08T03:33:57;13.40;;;9.35;;
10537;SDS011;5317;49.048;8.468;2023-02-08T03:36:29;13.70;;;9.63;;
10537;SDS011;5317;49.048;8.468;2023-02-08T03:39:02;14.15;;;9.98;;
10537;SDS011;5317;49.048;8.468;2023-02-08T03:41:34;12.50;;;9.23;;
10537;SDS011;5317;49.048;8.468;2023-02-08T03:44:04;14.52;;;9.38;;
10537;SDS011;5317;49.048;8.468;2023-02-08T03:46:36;16.63;;;10.40;;
10537;SDS011;5317;49.048;8.468;2023-02-08T03:49:08;15.93;;;9.70;;
10537;SDS011;5317;49.048;8.468;2023-02-08T03:51:40;12.02;;;8.95;;
10537;SDS011;5317;49.048;8.468;2023-02-08T03:54:10;14.32;;;8.90;;
10537;SDS011;5317;49.048;8.468;2023-02-08T03:56:42;13.63;;;9.45;;
10537;SDS011;5317;49.048;8.468;2023-02-08T03:59:12;10.25;;;8.35;;
10537;SDS011;5317;49.048;8.468;2023-02-08T04:01:44;13.27;;;9.25;;
10537;SDS011;5317;49.048;8.468;2023-02-08T04:04:16;12.43;;;8.77;;
10537;SDS011;5317;49.048;8.468;2023-02-08T04:06:44;14.40;;;9.02;;
10537;SDS011;5317;49.048;8.468;2023-02-08T04:09:11;11.80;;;9.50;;
10537;SDS011;5317;49.048;8.468;2023-02-08T04:11:38;11.90;;;8.90;;
10537;SDS011;5317;49.048;8.468;2023-02-08T04:14:05;13.32;;;8.50;;
10537;SDS011;5317;49.048;8.468;2023-02-08T04:16:32;14.73;;;9.23;;
10537;SDS011;5317;49.048;8.468;2023-02-08T04:18:58;14.25;;;9.68;;
10537;SDS011;5317;49.048;8.468;2023-02-08T04:21:27;13.82;;;9.20;;
10537;SDS011;5317;49.048;8.468;2023-02-08T04:23:53;13.73;;;8.60;;
10537;SDS011;5317;49.048;8.468;2023-02-08T04:26:20;12.60;;;9.20;;
10537;SDS011;5317;49.048;8.468;2023-02-08T04:28:47;14.52;;;9.98;;
10537;SDS011;5317;49.048;8.468;2023-02-08T04:31:14;13.38;;;9.25;;
10537;SDS011;5317;49.048;8.468;2023-02-08T04:33:41;14.23;;;9.60;;
10537;SDS011;5317;49.048;8.468;2023-02-08T04:36:08;11.68;;;9.38;;
10537;SDS011;5317;49.048;8.468;2023-02-08T04:38:36;12.95;;;9.00;;
10537;SDS011;5317;49.048;8.468;2023-02-08T04:41:03;14.07;;;9.80;;
10537;SDS011;5317;49.048;8.468;2023-02-08T04:43:30;11.82;;;9.10;;
10537;SDS011;5317;49.048;8.468;2023-02-08T04:45:57;12.68;;;9.27;;
10537;SDS011;5317;49.048;8.468;2023-02-08T04:48:24;15.07;;;9.68;;
10537;SDS011;5317;49.048;8.468;2023-02-08T04:50:53;13.55;;;9.68;;
10537;SDS011;5317;49.048;8.468;2023-02-08T04:53:20;13.20;;;9.25;;
10537;SDS011;5317;49.048;8.468;2023-02-08T04:55:48;12.98;;;9.05;;
10537;SDS011;5317;49.048;8.468;2023-02-08T04:58:16;14.50;;;9.05;;
10537;SDS011;5317;49.048;8.468;2023-02-08T05:00:43;13.73;;;9.65;;
10537;SDS011;5317;49.048;8.468;2023-02-08T05:03:10;14.45;;;10.23;;
10537;SDS011;5317;49.048;8.468;2023-02-08T05:05:37;14.55;;;10.20;;
10537;SDS011;5317;49.048;8.468;2023-02-08T05:08:04;12.65;;;9.32;;
10537;SDS011;5317;49.048;8.468;2023-02-08T05:10:31;14.15;;;10.23;;
10537;SDS011;5317;49.048;8.468;2023-02-08T05:12:59;15.80;;;10.02;;
10537;SDS011;5317;49.048;8.468;2023-02-08T05:15:26;16.35;;;10.52;;
10537;SDS011;5317;49.048;8.468;2023-02-08T05:17:53;14.00;;;9.52;;
10537;SDS011;5317;49.048;8.468;2023-02-08T05:20:20;15.40;;;10.02;;
10537;SDS011;5317;49.048;8.468;2023-02-08T05:22:47;14.20;;;9.60;;
10537;SDS011;5317;49.048;8.468;2023-02-08T05:25:13;16.08;;;9.75;;
10537;SDS011;5317;49.048;8.468;2023-02-08T05:27:42;13.30;;;9.88;;
10537;SDS011;5317;49.048;8.468;2023-02-08T05:30:10;14.88;;;9.65;;
10537;SDS011;5317;49.048;8.468;2023-02-08T05:32:37;12.73;;;9.20;;
10537;SDS011;5317;49.048;8.468;2023-02-08T05:35:04;13.02;;;9.30;;
10537;SDS011;5317;49.048;8.468;2023-02-08T05:37:32;14.75;;;9.90;;
10537;SDS011;5317;49.048;8.468;2023-02-08T05:39:59;13.07;;;9.88;;
10537;SDS011;5317;49.048;8.468;2023-02-08T05:42:26;13.90;;;10.18;;
10537;SDS011;5317;49.048;8.468;2023-02-08T05:44:52;13.50;;;9.35;;
10537;SDS011;5317;49.048;8.468;2023-02-08T05:47:21;14.18;;;9.00;;
10537;SDS011;5317;49.048;8.468;2023-02-08T05:49:48;13.25;;;9.10;;
10537;SDS011;5317;49.048;8.468;2023-02-08T05:52:14;12.50;;;9.45;;
10537;SDS011;5317;49.048;8.468;2023-02-08T05:54:41;13.20;;;9.38;;
10537;SDS011;5317;49.048;8.468;2023-02-08T05:57:08;14.35;;;10.00;;
10537;SDS011;5317;49.048;8.468;2023-02-08T05:59:35;12.38;;;8.80;;
10537;SDS011;5317;49.048;8.468;2023-02-08T06:02:02;12.82;;;9.30;;
10537;SDS011;5317;49.048;8.468;2023-02-08T06:04:30;15.02;;;9.20;;
10537;SDS011;5317;49.048;8.468;2023-02-08T06:06:57;12.13;;;8.85;;
10537;SDS011;5317;49.048;8.468;2023-02-08T06:09:23;12.48;;;9.23;;
10537;SDS011;5317;49.048;8.468;2023-02-08T06:11:50;13.38;;;9.02;;
10537;SDS011;5317;49.048;8.468;2023-02-08T06:14:17;12.63;;;9.40;;
10537;SDS011;5317;49.048;8.468;2023-02-08T06:16:44;13.85;;;9.48;;
10537;SDS011;5317;49.048;8.468;2023-02-08T06:19:11;13.38;;;9.30;;
10537;SDS011;5317;49.048;8.468;2023-02-08T06:21:39;13.30;;;9.18;;
10537;SDS011;5317;49.048;8.468;2023-02-08T06:24:06;13.30;;;9.13;;
10537;SDS011;5317;49.048;8.468;2023-02-08T06:26:34;12.18;;;9.50;;
10537;SDS011;5317;49.048;8.468;2023-02-08T06:29:01;12.95;;;9.43;;
10537;SDS011;5317;49.048;8.468;2023-02-08T06:31:27;12.88;;;9.35;;
10537;SDS011;5317;49.048;8.468;2023-02-08T06:33:54;13.57;;;10.00;;
10537;SDS011;5317;49.048;8.468;2023-02-08T06:36:21;11.40;;;8.48;;
10537;SDS011;5317;49.048;8.468;2023-02-08T06:38:49;12.93;;;9.57;;
10537;SDS011;5317;49.048;8.468;2023-02-08T06:41:16;13.63;;;9.13;;
10537;SDS011;5317;49.048;8.468;2023-02-08T06:43:43;13.65;;;8.90;;
10537;SDS011;5317;49.048;8.468;2023-02-08T06:46:10;13.20;;;9.63;;
10537;SDS011;5317;49.048;8.468;2023-02-08T06:48:37;16.60;;;10.20;;
10537;SDS011;5317;49.048;8.468;2023-02-08T06:51:04;14.98;;;9.90;;
10537;SDS011;5317;49.048;8.468;2023-02-08T06:53:31;13.52;;;9.02;;
10537;SDS011;5317;49.048;8.468;2023-02-08T06:55:59;13.45;;;9.25;;
10537;SDS011;5317;49.048;8.468;2023-02-08T06:58:26;13.45;;;9.13;;
10537;SDS011;5317;49.048;8.468;2023-02-08T07:00:53;12.27;;;9.45;;
10537;SDS011;5317;49.048;8.468;2023-02-08T07:03:19;13.98;;;9.82;;
10537;SDS011;5317;49.048;8.468;2023-02-08T07:05:47;12.57;;;9.48;;
10537;SDS011;5317;49.048;8.468;2023-02-08T07:08:14;14.20;;;9.65;;
10537;SDS011;5317;49.048;8.468;2023-02-08T07:10:41;14.13;;;9.77;;
10537;SDS011;5317;49.048;8.468;2023-02-08T07:13:10;14.02;;;9.27;;
10537;SDS011;5317;49.048;8.468;2023-02-08T07:15:37;14.50;;;9.90;;
10537;SDS011;5317;49.048;8.468;2023-02-08T07:18:04;13.88;;;9.63;;
10537;SDS011;5317;49.048;8.468;2023-02-08T07:20:32;15.70;;;9.35;;
10537;SDS011;5317;49.048;8.468;2023-02-08T07:22:59;12.25;;;9.80;;
10537;SDS011;5317;49.048;8.468;2023-02-08T07:25:26;15.25;;;9.77;;
10537;SDS011;5317;49.048;8.468;2023-02-08T07:27:52;14.57;;;9.52;;
10537;SDS011;5317;49.048;8.468;2023-02-08T07:30:21;13.85;;;10.85;;
10537;SDS011;5317;49.048;8.468;2023-02-08T07:32:47;13.43;;;9.18;;
10537;SDS011;5317;49.048;8.468;2023-02-08T07:35:14;13.30;;;9.68;;
10537;SDS011;5317;49.048;8.468;2023-02-08T07:37:42;13.45;;;9.50;;
10537;SDS011;5317;49.048;8.468;2023-02-08T07:40:09;14.10;;;10.10;;
10537;SDS011;5317;49.048;8.468;2023-02-08T07:42:36;14.32;;;9.38;;
10537;SDS011;5317;49.048;8.468;2023-02-08T07:45:04;13.15;;;9.60;;
10537;SDS011;5317;49.048;8.468;2023-02-08T07:47:32;12.07;;;9.70;;
10537;SDS011;5317;49.048;8.468;2023-02-08T07:49:59;13.10;;;9.68;;
10537;SDS011;5317;49.048;8.468;2023-02-08T07:52:26;14.25;;;10.35;;
10537;SDS011;5317;49.048;8.468;2023-02-08T07:54:53;14.43;;;10.05;;
10537;SDS011;5317;49.048;8.468;2023-02-08T07:57:21;13.63;;;8.63;;
10537;SDS011;5317;49.048;8.468;2023-02-08T07:59:47;13.95;;;9.60;;
10537;SDS011;5317;49.048;8.468;2023-02-08T08:02:14;13.40;;;9.18;;
10537;SDS011;5317;49.048;8.468;2023-02-08T08:04:43;14.30;;;9.95;;
10537;SDS011;5317;49.048;8.468;2023-02-08T08:07:10;14.43;;;9.88;;
10537;SDS011;5317;49.048;8.468;2023-02-08T08:09:37;14.18;;;9.95;;
10537;SDS011;5317;49.048;8.468;2023-02-08T08:12:04;15.13;;;10.05;;
10537;SDS011;5317;49.048;8.468;2023-02-08T08:14:31;13.57;;;10.20;;
10537;SDS011;5317;49.048;8.468;2023-02-08T08:16:58;14.27;;;10.10;;
10537;SDS011;5317;49.048;8.468;2023-02-08T08:19:25;13.57;;;9.85;;
10537;SDS011;5317;49.048;8.468;2023-02-08T08:21:53;13.40;;;9.18;;
10537;SDS011;5317;49.048;8.468;2023-02-08T08:24:20;13.50;;;9.80;;
10537;SDS011;5317;49.048;8.468;2023-02-08T08:26:47;14.13;;;10.57;;
10537;SDS011;5317;49.048;8.468;2023-02-08T08:29:14;14.02;;;10.18;;
10537;SDS011;5317;49.048;8.468;2023-02-08T08:31:41;13.02;;;9.55;;
10537;SDS011;5317;49.048;8.468;2023-02-08T08:34:10;12.82;;;10.27;;
10537;SDS011;5317;49.048;8.468;2023-02-08T08:36:37;12.10;;;9.43;;
10537;SDS011;5317;49.048;8.468;2023-02-08T08:39:05;13.40;;;9.75;;
10537;SDS011;5317;49.048;8.468;2023-02-08T08:41:32;12.90;;;9.70;;
10537;SDS011;5317;49.048;8.468;2023-02-08T08:44:00;15.10;;;9.90;;
10537;SDS011;5317;49.048;8.468;2023-02-08T08:46:27;11.95;;;9.70;;
10537;SDS011;5317;49.048;8.468;2023-02-08T08:48:57;15.50;;;9.98;;
10537;SDS011;5317;49.048;8.468;2023-02-08T08:51:25;14.32;;;10.15;;
10537;SDS011;5317;49.048;8.468;2023-02-08T08:53:51;15.35;;;10.15;;
10537;SDS011;5317;49.048;8.468;2023-02-08T08:56:20;14.60;;;10.40;;
10537;SDS011;5317;49.048;8.468;2023-02-08T08:58:47;14.18;;;10.02;;
10537;SDS011;5317;49.048;8.468;2023-02-08T09:01:13;12.18;;;9.65;;
10537;SDS011;5317;49.048;8.468;2023-02-08T09:03:40;11.57;;;9.57;;
10537;SDS011;5317;49.048;8.468;2023-02-08T09:06:07;14.70;;;10.30;;
10537;SDS011;5317;49.048;8.468;2023-02-08T09:08:34;15.75;;;10.30;;
10537;SDS011;5317;49.048;8.468;2023-02-08T09:11:04;13.52;;;10.23;;
10537;SDS011;5317;49.048;8.468;2023-02-08T09:13:33;12.48;;;9.75;;
10537;SDS011;5317;49.048;8.468;2023-02-08T09:16:03;13.90;;;10.13;;
10537;SDS011;5317;49.048;8.468;2023-02-08T09:18:30;14.40;;;10.23;;
10537;SDS011;5317;49.048;8.468;2023-02-08T09:20:57;14.60;;;9.90;;
10537;SDS011;5317;49.048;8.468;2023-02-08T09:23:24;12.40;;;9.65;;
10537;SDS011;5317;49.048;8.468;2023-02-08T09:25:51;11.90;;;8.70;;
10537;SDS011;5317;49.048;8.468;2023-02-08T09:28:18;13.17;;;9.80;;
10537;SDS011;5317;49.048;8.468;2023-02-08T09:30:46;12.47;;;9.20;;
10537;SDS011;5317;49.048;8.468;2023-02-08T09:33:13;14.00;;;9.60;;
10537;SDS011;5317;49.048;8.468;2023-02-08T09:35:40;13.23;;;8.63;;
10537;SDS011;5317;49.048;8.468;2023-02-08T09:38:06;12.00;;;8.63;;
10537;SDS011;5317;49.048;8.468;2023-02-08T09:40:35;12.53;;;9.43;;
10537;SDS011;5317;49.048;8.468;2023-02-08T09:43:07;12.67;;;9.07;;
10537;SDS011;5317;49.048;8.468;2023-02-08T09:45:39;15.40;;;9.17;;
10537;SDS011;5317;49.048;8.468;2023-02-08T09:48:17;13.27;;;9.40;;
10537;SDS011;5317;49.048;8.468;2023-02-08T09:50:49;12.40;;;9.17;;
10537;SDS011;5317;49.048;8.468;2023-02-08T09:53:22;11.73;;;9.13;;
10537;SDS011;5317;49.048;8.468;2023-02-08T09:55:55;11.63;;;9.20;;
10537;SDS011;5317;49.048;8.468;2023-02-08T09:58:26;12.03;;;8.93;;
10537;SDS011;5317;49.048;8.468;2023-02-08T10:00:57;17.63;;;9.97;;
10537;SDS011;5317;49.048;8.468;2023-02-08T10:03:27;12.80;;;9.13;;
10537;SDS011;5317;49.048;8.468;2023-02-08T10:05:59;13.50;;;9.27;;
10537;SDS011;5317;49.048;8.468;2023-02-08T10:08:26;11.23;;;9.07;;
10537;SDS011;5317;49.048;8.468;2023-02-08T10:10:55;12.53;;;8.97;;
10537;SDS011;5317;49.048;8.468;2023-02-08T10:13:39;13.77;;;9.13;;
10537;SDS011;5317;49.048;8.468;2023-02-08T10:16:38;11.93;;;9.17;;
10537;SDS011;5317;49.048;8.468;2023-02-08T10:19:20;12.83;;;9.10;;
10537;SDS011;5317;49.048;8.468;2023-02-08T10:22:01;10.97;;;8.40;;
10537;SDS011;5317;49.048;8.468;2023-02-08T10:24:44;12.00;;;8.70;;
10537;SDS011;5317;49.048;8.468;2023-02-08T10:27:39;13.00;;;8.97;;
10537;SDS011;5317;49.048;8.468;2023-02-08T10:30:15;12.50;;;9.47;;
10537;SDS011;5317;49.048;8.468;2023-02-08T10:35:26;10.97;;;9.43;;
10537;SDS011;5317;49.048;8.468;2023-02-08T10:38:01;13.13;;;9.30;;
10537;SDS011;5317;49.048;8.468;2023-02-08T10:40:37;11.57;;;9.33;;
10537;SDS011;5317;49.048;8.468;2023-02-08T10:43:10;10.70;;;8.70;;
10537;SDS011;5317;49.048;8.468;2023-02-08T10:45:46;12.07;;;9.17;;
10537;SDS011;5317;49.048;8.468;2023-02-08T10:48:20;11.40;;;9.47;;
10537;SDS011;5317;49.048;8.468;2023-02-08T10:50:58;11.13;;;9.40;;
10537;SDS011;5317;49.048;8.468;2023-02-08T10:53:25;12.43;;;8.83;;
10537;SDS011;5317;49.048;8.468;2023-02-08T10:55:52;10.47;;;8.53;;
10537;SDS011;5317;49.048;8.468;2023-02-08T10:58:19;10.10;;;8.27;;
10537;SDS011;5317;49.048;8.468;2023-02-08T11:00:49;11.03;;;9.00;;
10537;SDS011;5317;49.048;8.468;2023-02-08T11:03:19;12.17;;;9.00;;
10537;SDS011;5317;49.048;8.468;2023-02-08T11:05:47;10.40;;;8.73;;
10537;SDS011;5317;49.048;8.468;2023-02-08T11:08:17;11.67;;;9.20;;
10537;SDS011;5317;49.048;8.468;2023-02-08T11:10:45;12.53;;;9.53;;
10537;SDS011;5317;49.048;8.468;2023-02-08T11:13:24;11.53;;;9.27;;
10537;SDS011;5317;49.048;8.468;2023-02-08T11:15:57;10.90;;;9.00;;
10537;SDS011;5317;49.048;8.468;2023-02-08T11:18:27;11.83;;;9.23;;
10537;SDS011;5317;49.048;8.468;2023-02-08T11:20:58;10.77;;;8.30;;
10537;SDS011;5317;49.048;8.468;2023-02-08T11:23:29;13.57;;;9.07;;
10537;SDS011;5317;49.048;8.468;2023-02-08T11:26:14;12.47;;;9.17;;
10537;SDS011;5317;49.048;8.468;2023-02-08T11:28:44;11.77;;;8.87;;
10537;SDS011;5317;49.048;8.468;2023-02-08T11:31:24;10.07;;;8.47;;
10537;SDS011;5317;49.048;8.468;2023-02-08T11:33:58;11.43;;;8.57;;
10537;SDS011;5317;49.048;8.468;2023-02-08T11:36:27;13.07;;;8.83;;
10537;SDS011;5317;49.048;8.468;2023-02-08T11:38:56;11.13;;;8.47;;
10537;SDS011;5317;49.048;8.468;2023-02-08T11:41:27;9.90;;;8.20;;
10537;SDS011;5317;49.048;8.468;2023-02-08T11:43:56;10.67;;;8.57;;
10537;SDS011;5317;49.048;8.468;2023-02-08T11:46:26;10.80;;;8.93;;
10537;SDS011;5317;49.048;8.468;2023-02-08T11:48:55;10.03;;;8.47;;
10537;SDS011;5317;49.048;8.468;2023-02-08T11:51:24;10.67;;;8.60;;
10537;SDS011;5317;49.048;8.468;2023-02-08T11:53:53;12.97;;;8.90;;
10537;SDS011;5317;49.048;8.468;2023-02-08T11:56:23;10.07;;;8.33;;
10537;SDS011;5317;49.048;8.468;2023-02-08T11:58:56;10.23;;;8.53;;
10537;SDS011;5317;49.048;8.468;2023-02-08T12:01:26;11.17;;;8.67;;
10537;SDS011;5317;49.048;8.468;2023-02-08T12:03:54;11.10;;;8.67;;
10537;SDS011;5317;49.048;8.468;2023-02-08T12:09:23;11.63;;;9.20;;
10537;SDS011;5317;49.048;8.468;2023-02-08T12:12:04;10.20;;;8.97;;
10537;SDS011;5317;49.048;8.468;2023-02-08T12:14:40;10.87;;;8.93;;
10537;SDS011;5317;49.048;8.468;2023-02-08T12:17:27;11.93;;;9.07;;
10537;SDS011;5317;49.048;8.468;2023-02-08T12:25:52;11.33;;;8.63;;
10537;SDS011;5317;49.048;8.468;2023-02-08T12:28:31;9.93;;;8.50;;
10537;SDS011;5317;49.048;8.468;2023-02-08T12:31:09;11.77;;;8.90;;
10537;SDS011;5317;49.048;8.468;2023-02-08T12:33:47;10.10;;;8.80;;
10537;SDS011;5317;49.048;8.468;2023-02-08T12:39:38;11.40;;;9.17;;
10537;SDS011;5317;49.048;8.468;2023-02-08T12:42:31;10.67;;;9.20;;
10537;SDS011;5317;49.048;8.468;2023-02-08T12:45:13;11.03;;;8.77;;
10537;SDS011;5317;49.048;8.468;2023-02-08T12:47:58;10.83;;;9.30;;
10537;SDS011;5317;49.048;8.468;2023-02-08T12:50:35;10.27;;;8.57;;
10537;SDS011;5317;49.048;8.468;2023-02-08T12:53:08;10.07;;;9.00;;
10537;SDS011;5317;49.048;8.468;2023-02-08T12:55:42;12.60;;;9.20;;
10537;SDS011;5317;49.048;8.468;2023-02-08T12:58:17;10.87;;;8.90;;
10537;SDS011;5317;49.048;8.468;2023-02-08T13:00:51;10.77;;;8.60;;
10537;SDS011;5317;49.048;8.468;2023-02-08T13:03:26;12.07;;;9.33;;
10537;SDS011;5317;49.048;8.468;2023-02-08T13:06:01;10.97;;;8.83;;
10537;SDS011;5317;49.048;8.468;2023-02-08T13:08:32;10.50;;;9.03;;
10537;SDS011;5317;49.048;8.468;2023-02-08T13:11:09;12.80;;;9.90;;
10537;SDS011;5317;49.048;8.468;2023-02-08T13:13:42;10.03;;;8.90;;
10537;SDS011;5317;49.048;8.468;2023-02-08T13:16:16;10.20;;;9.13;;
10537;SDS011;5317;49.048;8.468;2023-02-08T13:18:46;10.00;;;9.00;;
10537;SDS011;5317;49.048;8.468;2023-02-08T13:21:18;10.93;;;9.50;;
10537;SDS011;5317;49.048;8.468;2023-02-08T13:23:49;11.50;;;10.10;;
10537;SDS011;5317;49.048;8.468;2023-02-08T13:26:17;10.77;;;9.37;;
10537;SDS011;5317;49.048;8.468;2023-02-08T13:28:49;10.97;;;9.30;;
10537;SDS011;5317;49.048;8.468;2023-02-08T13:31:19;10.93;;;9.70;;
10537;SDS011;5317;49.048;8.468;2023-02-08T13:33:50;9.83;;;8.83;;
10537;SDS011;5317;49.048;8.468;2023-02-08T13:36:23;9.97;;;8.97;;
10537;SDS011;5317;49.048;8.468;2023-02-08T13:38:52;10.30;;;9.20;;
10537;SDS011;5317;49.048;8.468;2023-02-08T13:41:20;10.50;;;9.40;;
10537;SDS011;5317;49.048;8.468;2023-02-08T13:43:50;9.37;;;8.47;;
10537;SDS011;5317;49.048;8.468;2023-02-08T13:46:36;10.37;;;9.30;;
10537;SDS011;5317;49.048;8.468;2023-02-08T13:49:11;10.50;;;9.60;;
10537;SDS011;5317;49.048;8.468;2023-02-08T13:55:38;10.20;;;9.30;;
10537;SDS011;5317;49.048;8.468;2023-02-08T14:01:30;10.13;;;9.23;;
10537;SDS011;5317;49.048;8.468;2023-02-08T14:13:02;9.20;;;8.30;;
10537;SDS011;5317;49.048;8.468;2023-02-08T14:15:34;8.83;;;8.03;;
10537;SDS011;5317;49.048;8.468;2023-02-08T14:18:03;9.53;;;8.70;;
10537;SDS011;5317;49.048;8.468;2023-02-08T14:20:44;9.40;;;8.50;;
10537;SDS011;5317;49.048;8.468;2023-02-08T14:23:30;9.57;;;8.67;;
10537;SDS011;5317;49.048;8.468;2023-02-08T14:26:06;8.83;;;7.93;;
10537;SDS011;5317;49.048;8.468;2023-02-08T14:28:35;9.37;;;8.57;;
10537;SDS011;5317;49.048;8.468;2023-02-08T14:31:05;9.00;;;8.20;;
10537;SDS011;5317;49.048;8.468;2023-02-08T14:33:36;8.70;;;7.87;;
10537;SDS011;5317;49.048;8.468;2023-02-08T14:36:05;8.93;;;8.10;;
10537;SDS011;5317;49.048;8.468;2023-02-08T14:39:03;8.23;;;7.53;;
10537;SDS011;5317;49.048;8.468;2023-02-08T14:41:46;8.87;;;8.07;;
10537;SDS011;5317;49.048;8.468;2023-02-08T14:50:32;8.10;;;7.40;;
10537;SDS011;5317;49.048;8.468;2023-02-08T14:53:13;8.47;;;7.63;;
10537;SDS011;5317;49.048;8.468;2023-02-08T14:55:46;8.30;;;7.50;;
10537;SDS011;5317;49.048;8.468;2023-02-08T14:58:21;8.87;;;8.00;;
10537;SDS011;5317;49.048;8.468;2023-02-08T15:00:53;8.17;;;7.37;;
10537;SDS011;5317;49.048;8.468;2023-02-08T15:03:22;7.77;;;7.00;;
10537;SDS011;5317;49.048;8.468;2023-02-08T15:06:15;7.50;;;6.90;;
10537;SDS011;5317;49.048;8.468;2023-02-08T15:09:12;8.80;;;8.10;;
10537;SDS011;5317;49.048;8.468;2023-02-08T15:11:46;9.17;;;8.27;;
10537;SDS011;5317;49.048;8.468;2023-02-08T15:14:16;8.00;;;7.23;;
10537;SDS011;5317;49.048;8.468;2023-02-08T15:16:45;8.20;;;7.40;;
10537;SDS011;5317;49.048;8.468;2023-02-08T15:19:17;8.93;;;7.60;;
10537;SDS011;5317;49.048;8.468;2023-02-08T15:21:48;7.73;;;7.03;;
10537;SDS011;5317;49.048;8.468;2023-02-08T15:24:16;8.07;;;7.27;;
10537;SDS011;5317;49.048;8.468;2023-02-08T15:26:48;8.00;;;6.70;;
10537;SDS011;5317;49.048;8.468;2023-02-08T15:29:16;7.63;;;6.90;;
10537;SDS011;5317;49.048;8.468;2023-02-08T15:31:45;7.50;;;6.67;;
10537;SDS011;5317;49.048;8.468;2023-02-08T15:34:13;7.60;;;6.17;;
10537;SDS011;5317;49.048;8.468;2023-02-08T15:36:44;7.20;;;6.50;;
10537;SDS011;5317;49.048;8.468;2023-02-08T15:39:18;7.77;;;6.53;;
10537;SDS011;5317;49.048;8.468;2023-02-08T15:41:54;8.73;;;6.30;;
10537;SDS011;5317;49.048;8.468;2023-02-08T15:44:23;8.33;;;6.80;;
10537;SDS011;5317;49.048;8.468;2023-02-08T15:46:51;7.97;;;6.10;;
10537;SDS011;5317;49.048;8.468;2023-02-08T15:49:21;8.27;;;6.20;;
10537;SDS011;5317;49.048;8.468;2023-02-08T15:51:53;7.87;;;6.10;;
10537;SDS011;5317;49.048;8.468;2023-02-08T15:54:22;6.93;;;5.87;;